DLH1522 EDDS-EDDH
Flight info
| Callsign | DLH1522 |
|---|---|
| Flight time | 1h 24m |
| Altitude | 35000 |
| Route | OKIBA4B/25 OKIBA N851 RIMKI Z99 LOHRE DCT MASEK DCT ELNAT P605 NOLGO NOLGO6A |
| Aircraft | A339/H-SADE1E2E3GHIJ3J5M1P2RWXY/LB2D1 |
Departure
| Time | 2026-05-06 18:10 |
|---|---|
| Airport | Stuttgart Airport (EDDS) |
Arrival
| Time | 2026-05-06 19:34 |
|---|---|
| Airport | Hamburg Helmut Schmidt Airport (EDDH) |
| Time | Latitude | Longitude | Altitude | Speed | Heading |
|---|---|---|---|---|---|
| 2026-05-06 17:37 | 48.69074 | 9.20113 | 1291 ft | 0 kts | 344° |
| 2026-05-06 17:56 | 48.69068 | 9.20116 | 1291 ft | 2 kts | 344° |
| 2026-05-06 17:57 | 48.69065 | 9.20117 | 1291 ft | 0 kts | 344° |
| 2026-05-06 17:57 | 48.69061 | 9.20118 | 1291 ft | 1 kts | 343° |
| 2026-05-06 17:57 | 48.69052 | 9.20122 | 1291 ft | 1 kts | 341° |
| 2026-05-06 17:57 | 48.69041 | 9.20128 | 1291 ft | 3 kts | 338° |
| 2026-05-06 17:58 | 48.69024 | 9.20139 | 1291 ft | 3 kts | 19° |
| 2026-05-06 17:58 | 48.69006 | 9.20128 | 1291 ft | 3 kts | 51° |
| 2026-05-06 17:58 | 48.68998 | 9.20109 | 1291 ft | 0 kts | 71° |
| 2026-05-06 18:02 | 48.68998 | 9.20110 | 1291 ft | 2 kts | 71° |
| 2026-05-06 18:02 | 48.69004 | 9.20138 | 1291 ft | 7 kts | 72° |
| 2026-05-06 18:03 | 48.69007 | 9.20153 | 1291 ft | 10 kts | 73° |
| 2026-05-06 18:03 | 48.69028 | 9.20257 | 1291 ft | 23 kts | 75° |
| 2026-05-06 18:03 | 48.69058 | 9.20415 | 1291 ft | 18 kts | 76° |
| 2026-05-06 18:03 | 48.69048 | 9.20494 | 1291 ft | 10 kts | 125° |
| 2026-05-06 18:04 | 48.68992 | 9.20582 | 1291 ft | 13 kts | 135° |
| 2026-05-06 18:04 | 48.68965 | 9.20701 | 1291 ft | 11 kts | 75° |
| 2026-05-06 18:04 | 48.68989 | 9.20835 | 1291 ft | 16 kts | 74° |
| 2026-05-06 18:04 | 48.69031 | 9.21055 | 1291 ft | 26 kts | 74° |
| 2026-05-06 18:05 | 48.69081 | 9.21323 | 1291 ft | 27 kts | 74° |
| 2026-05-06 18:05 | 48.69133 | 9.21598 | 1291 ft | 27 kts | 74° |
| 2026-05-06 18:05 | 48.69186 | 9.21867 | 1291 ft | 26 kts | 73° |
| 2026-05-06 18:05 | 48.69236 | 9.22132 | 1291 ft | 26 kts | 74° |
| 2026-05-06 18:06 | 48.69285 | 9.22392 | 1291 ft | 26 kts | 74° |
| 2026-05-06 18:06 | 48.69335 | 9.22655 | 1291 ft | 25 kts | 74° |
| 2026-05-06 18:06 | 48.69378 | 9.22876 | 1291 ft | 20 kts | 73° |
| 2026-05-06 18:06 | 48.69413 | 9.23068 | 1291 ft | 21 kts | 75° |
| 2026-05-06 18:07 | 48.69461 | 9.23324 | 1291 ft | 28 kts | 74° |
| 2026-05-06 18:07 | 48.69503 | 9.23548 | 1291 ft | 25 kts | 73° |
| 2026-05-06 18:07 | 48.69547 | 9.23778 | 1291 ft | 21 kts | 74° |
| 2026-05-06 18:07 | 48.69584 | 9.23970 | 1291 ft | 17 kts | 74° |
| 2026-05-06 18:08 | 48.69611 | 9.24141 | 1291 ft | 15 kts | 89° |
| 2026-05-06 18:08 | 48.69573 | 9.24259 | 1291 ft | 11 kts | 130° |
| 2026-05-06 18:08 | 48.69513 | 9.24308 | 1291 ft | 10 kts | 162° |
| 2026-05-06 18:08 | 48.69426 | 9.24335 | 1291 ft | 13 kts | 178° |
| 2026-05-06 18:09 | 48.69383 | 9.24269 | 1291 ft | 7 kts | 248° |
| 2026-05-06 18:09 | 48.69378 | 9.24246 | 1291 ft | 0 kts | 251° |
| 2026-05-06 18:09 | 48.69348 | 9.24094 | 1291 ft | 48 kts | 254° |
| 2026-05-06 18:09 | 48.69188 | 9.23255 | 1291 ft | 117 kts | 254° |
| 2026-05-06 18:10 | 48.68919 | 9.21789 | 1367 ft | 164 kts | 257° |
| 2026-05-06 18:10 | 48.68642 | 9.20097 | 1952 ft | 172 kts | 256° |
| 2026-05-06 18:10 | 48.68389 | 9.18287 | 2604 ft | 178 kts | 259° |
| 2026-05-06 18:10 | 48.68041 | 9.16470 | 3174 ft | 186 kts | 253° |
| 2026-05-06 18:11 | 48.67579 | 9.14551 | 3520 ft | 207 kts | 243° |
| 2026-05-06 18:11 | 48.67473 | 9.14195 | 3570 ft | 211 kts | 242° |
| 2026-05-06 18:11 | 48.67086 | 9.12948 | 3800 ft | 222 kts | 242° |
| 2026-05-06 18:11 | 48.66743 | 9.11826 | 4100 ft | 226 kts | 243° |
| 2026-05-06 18:12 | 48.66385 | 9.09947 | 4664 ft | 229 kts | 260° |
| 2026-05-06 18:12 | 48.66510 | 9.07503 | 5214 ft | 244 kts | 288° |
| 2026-05-06 18:12 | 48.67504 | 9.05310 | 5660 ft | 264 kts | 318° |
| 2026-05-06 18:12 | 48.69181 | 9.04102 | 6312 ft | 276 kts | 347° |
| 2026-05-06 18:13 | 48.71062 | 9.04231 | 6980 ft | 283 kts | 14° |
| 2026-05-06 18:13 | 48.72635 | 9.05142 | 7549 ft | 288 kts | 23° |
| 2026-05-06 18:13 | 48.74474 | 9.06391 | 8297 ft | 289 kts | 22° |
| 2026-05-06 18:13 | 48.76366 | 9.07508 | 8948 ft | 293 kts | 18° |
| 2026-05-06 18:14 | 48.78296 | 9.08435 | 9703 ft | 294 kts | 15° |
| 2026-05-06 18:14 | 48.80305 | 9.09263 | 10175 ft | 306 kts | 13° |
| 2026-05-06 18:14 | 48.82439 | 9.10081 | 10352 ft | 326 kts | 13° |
| 2026-05-06 18:14 | 48.84707 | 9.10931 | 10592 ft | 343 kts | 13° |
| 2026-05-06 18:15 | 48.87026 | 9.11804 | 11126 ft | 348 kts | 13° |
| 2026-05-06 18:15 | 48.89396 | 9.12704 | 11691 ft | 353 kts | 13° |
| 2026-05-06 18:15 | 48.91793 | 9.13620 | 12307 ft | 356 kts | 14° |
| 2026-05-06 18:15 | 48.94203 | 9.14544 | 12937 ft | 359 kts | 14° |
| 2026-05-06 18:16 | 48.96650 | 9.15487 | 13488 ft | 364 kts | 14° |
| 2026-05-06 18:16 | 48.99091 | 9.16427 | 14026 ft | 367 kts | 14° |
| 2026-05-06 18:16 | 49.01570 | 9.17385 | 14684 ft | 367 kts | 14° |
| 2026-05-06 18:16 | 49.04088 | 9.18355 | 15111 ft | 375 kts | 14° |
| 2026-05-06 18:17 | 49.06590 | 9.19320 | 15725 ft | 376 kts | 14° |
| 2026-05-06 18:17 | 49.09129 | 9.20304 | 16286 ft | 378 kts | 14° |
| 2026-05-06 18:17 | 49.11712 | 9.21306 | 16737 ft | 383 kts | 14° |
| 2026-05-06 18:17 | 49.14302 | 9.22312 | 17385 ft | 383 kts | 14° |
| 2026-05-06 18:18 | 49.16907 | 9.23327 | 17820 ft | 389 kts | 14° |
| 2026-05-06 18:18 | 49.19555 | 9.24360 | 18297 ft | 392 kts | 14° |
| 2026-05-06 18:18 | 49.21711 | 9.25201 | 18767 ft | 393 kts | 14° |
| 2026-05-06 18:18 | 49.23132 | 9.25756 | 18964 ft | 396 kts | 14° |
| 2026-05-06 18:19 | 49.24927 | 9.26457 | 19256 ft | 398 kts | 14° |
| 2026-05-06 18:19 | 49.27534 | 9.27477 | 19794 ft | 399 kts | 14° |
| 2026-05-06 18:19 | 49.30252 | 9.28541 | 20226 ft | 404 kts | 14° |
| 2026-05-06 18:19 | 49.32952 | 9.29599 | 20731 ft | 406 kts | 14° |
| 2026-05-06 18:20 | 49.35731 | 9.30581 | 21196 ft | 409 kts | 9° |
| 2026-05-06 18:20 | 49.38346 | 9.31018 | 21657 ft | 411 kts | 5° |
| 2026-05-06 18:20 | 49.41226 | 9.31412 | 22148 ft | 414 kts | 5° |
| 2026-05-06 18:20 | 49.44080 | 9.31825 | 22613 ft | 418 kts | 5° |
| 2026-05-06 18:21 | 49.46994 | 9.32256 | 23100 ft | 421 kts | 5° |
| 2026-05-06 18:21 | 49.49936 | 9.32694 | 23551 ft | 424 kts | 5° |
| 2026-05-06 18:21 | 49.52888 | 9.33133 | 23994 ft | 427 kts | 5° |
| 2026-05-06 18:21 | 49.55846 | 9.33572 | 24434 ft | 429 kts | 5° |
| 2026-05-06 18:22 | 49.58823 | 9.34192 | 24815 ft | 432 kts | 8° |
| 2026-05-06 18:22 | 49.61773 | 9.34778 | 25267 ft | 433 kts | 7° |
| 2026-05-06 18:22 | 49.64815 | 9.35367 | 25669 ft | 436 kts | 7° |
| 2026-05-06 18:22 | 49.67798 | 9.35959 | 26073 ft | 439 kts | 7° |
| 2026-05-06 18:23 | 49.69958 | 9.36400 | 26358 ft | 441 kts | 8° |
| 2026-05-06 18:23 | 49.73011 | 9.37033 | 26756 ft | 443 kts | 8° |
| 2026-05-06 18:23 | 49.76093 | 9.37680 | 27155 ft | 446 kts | 8° |
| 2026-05-06 18:23 | 49.79177 | 9.38331 | 27546 ft | 449 kts | 8° |
| 2026-05-06 18:24 | 49.82262 | 9.38983 | 27921 ft | 452 kts | 8° |
| 2026-05-06 18:24 | 49.85387 | 9.39647 | 28283 ft | 454 kts | 8° |
| 2026-05-06 18:24 | 49.88530 | 9.40313 | 28662 ft | 457 kts | 8° |
| 2026-05-06 18:24 | 49.89935 | 9.40611 | 28820 ft | 458 kts | 8° |
| 2026-05-06 18:25 | 49.93106 | 9.41284 | 29162 ft | 461 kts | 8° |
| 2026-05-06 18:25 | 49.96301 | 9.41963 | 29518 ft | 463 kts | 8° |
| 2026-05-06 18:25 | 49.99514 | 9.42646 | 29873 ft | 466 kts | 8° |
| 2026-05-06 18:25 | 50.02739 | 9.43333 | 30149 ft | 470 kts | 8° |
| 2026-05-06 18:26 | 50.06007 | 9.44033 | 30405 ft | 474 kts | 7° |
| 2026-05-06 18:26 | 50.08630 | 9.44595 | 30628 ft | 477 kts | 7° |
| 2026-05-06 18:26 | 50.11936 | 9.45302 | 30907 ft | 480 kts | 7° |
| 2026-05-06 18:26 | 50.15270 | 9.46017 | 31183 ft | 484 kts | 7° |
| 2026-05-06 18:27 | 50.18621 | 9.46736 | 31454 ft | 487 kts | 7° |
| 2026-05-06 18:27 | 50.21993 | 9.47461 | 31724 ft | 490 kts | 7° |
| 2026-05-06 18:27 | 50.25340 | 9.48181 | 31965 ft | 494 kts | 7° |
| 2026-05-06 18:27 | 50.28749 | 9.48918 | 32248 ft | 496 kts | 7° |
| 2026-05-06 18:28 | 50.32195 | 9.49663 | 32473 ft | 499 kts | 6° |
| 2026-05-06 18:28 | 50.33603 | 9.49967 | 32575 ft | 500 kts | 6° |
| 2026-05-06 18:28 | 50.37100 | 9.50724 | 32764 ft | 503 kts | 6° |
| 2026-05-06 18:28 | 50.40591 | 9.51480 | 32935 ft | 505 kts | 6° |
| 2026-05-06 18:29 | 50.44081 | 9.52237 | 33097 ft | 507 kts | 6° |
| 2026-05-06 18:29 | 50.47588 | 9.53000 | 33268 ft | 509 kts | 6° |
| 2026-05-06 18:29 | 50.51055 | 9.53756 | 33547 ft | 507 kts | 6° |
| 2026-05-06 18:29 | 50.54547 | 9.54520 | 33828 ft | 505 kts | 6° |
| 2026-05-06 18:30 | 50.58033 | 9.55281 | 34000 ft | 505 kts | 6° |
| 2026-05-06 18:30 | 50.61528 | 9.56045 | 34177 ft | 505 kts | 6° |
| 2026-05-06 18:30 | 50.65028 | 9.56811 | 34359 ft | 505 kts | 6° |
| 2026-05-06 18:30 | 50.68468 | 9.57565 | 34532 ft | 505 kts | 6° |
| 2026-05-06 18:31 | 50.71950 | 9.58330 | 34734 ft | 505 kts | 6° |
| 2026-05-06 18:31 | 50.75389 | 9.59087 | 34793 ft | 505 kts | 6° |
| 2026-05-06 18:31 | 50.82060 | 9.60559 | 34803 ft | 503 kts | 6° |
| 2026-05-06 18:32 | 50.88270 | 9.61933 | 34796 ft | 504 kts | 6° |
| 2026-05-06 18:32 | 50.95207 | 9.63562 | 34807 ft | 502 kts | 6° |
| 2026-05-06 18:33 | 50.98657 | 9.64305 | 34801 ft | 499 kts | 5° |
| 2026-05-06 18:33 | 51.05526 | 9.65779 | 34805 ft | 500 kts | 6° |
| 2026-05-06 18:34 | 51.11267 | 9.67084 | 34802 ft | 500 kts | 6° |
| 2026-05-06 18:34 | 51.17915 | 9.68634 | 34811 ft | 500 kts | 6° |
| 2026-05-06 18:35 | 51.24749 | 9.70238 | 34811 ft | 494 kts | 6° |
| 2026-05-06 18:35 | 51.31570 | 9.71839 | 34806 ft | 495 kts | 6° |
| 2026-05-06 18:36 | 51.37248 | 9.73176 | 34817 ft | 495 kts | 6° |
| 2026-05-06 18:36 | 51.44042 | 9.74778 | 34822 ft | 494 kts | 6° |
| 2026-05-06 18:37 | 51.50863 | 9.76393 | 34816 ft | 494 kts | 6° |
| 2026-05-06 18:37 | 51.57634 | 9.78002 | 34814 ft | 494 kts | 6° |
| 2026-05-06 18:38 | 51.64448 | 9.79626 | 34820 ft | 494 kts | 6° |
| 2026-05-06 18:38 | 51.71101 | 9.81216 | 34813 ft | 494 kts | 6° |
| 2026-05-06 18:39 | 51.77887 | 9.82845 | 34816 ft | 494 kts | 6° |
| 2026-05-06 18:40 | 51.87426 | 9.85138 | 34826 ft | 494 kts | 6° |
| 2026-05-06 18:40 | 51.94229 | 9.86780 | 34818 ft | 494 kts | 6° |
| 2026-05-06 18:41 | 52.01013 | 9.88424 | 34820 ft | 494 kts | 6° |
| 2026-05-06 18:41 | 52.05556 | 9.89528 | 34818 ft | 494 kts | 6° |
| 2026-05-06 18:42 | 52.10226 | 9.90664 | 34819 ft | 494 kts | 6° |
| 2026-05-06 18:42 | 52.17044 | 9.92328 | 34826 ft | 494 kts | 6° |
| 2026-05-06 18:43 | 52.23855 | 9.93995 | 34829 ft | 494 kts | 6° |
| 2026-05-06 18:43 | 52.27206 | 9.94817 | 34698 ft | 491 kts | 6° |
| 2026-05-06 18:43 | 52.30579 | 9.95646 | 34236 ft | 489 kts | 6° |
| 2026-05-06 18:43 | 52.33942 | 9.96474 | 33548 ft | 487 kts | 6° |
| 2026-05-06 18:44 | 52.37291 | 9.97300 | 32813 ft | 484 kts | 6° |
| 2026-05-06 18:44 | 52.40637 | 9.98125 | 31899 ft | 483 kts | 6° |
| 2026-05-06 18:44 | 52.43917 | 9.98935 | 31040 ft | 482 kts | 7° |
| 2026-05-06 18:44 | 52.47217 | 9.99752 | 30393 ft | 476 kts | 7° |
| 2026-05-06 18:45 | 52.50472 | 10.00559 | 29844 ft | 470 kts | 7° |
| 2026-05-06 18:45 | 52.53689 | 10.01358 | 29193 ft | 463 kts | 7° |
| 2026-05-06 18:45 | 52.56838 | 10.02406 | 28481 ft | 460 kts | 13° |
| 2026-05-06 18:45 | 52.59936 | 10.03624 | 27757 ft | 454 kts | 6° |
| 2026-05-06 18:46 | 52.63031 | 10.04103 | 27133 ft | 448 kts | 2° |
| 2026-05-06 18:46 | 52.66134 | 10.04371 | 26477 ft | 443 kts | 1° |
| 2026-05-06 18:46 | 52.67173 | 10.04455 | 26264 ft | 441 kts | 1° |
| 2026-05-06 18:46 | 52.70040 | 10.04713 | 25668 ft | 437 kts | 2° |
| 2026-05-06 18:47 | 52.73026 | 10.05032 | 25059 ft | 434 kts | 2° |
| 2026-05-06 18:47 | 52.76042 | 10.05394 | 24472 ft | 433 kts | 2° |
| 2026-05-06 18:47 | 52.79050 | 10.05778 | 23823 ft | 430 kts | 2° |
| 2026-05-06 18:47 | 52.82028 | 10.06169 | 23078 ft | 428 kts | 2° |
| 2026-05-06 18:48 | 52.84960 | 10.06553 | 22269 ft | 425 kts | 3° |
| 2026-05-06 18:48 | 52.87451 | 10.06881 | 21592 ft | 421 kts | 3° |
| 2026-05-06 18:48 | 52.90364 | 10.07265 | 20808 ft | 416 kts | 3° |
| 2026-05-06 18:48 | 52.93233 | 10.07653 | 20056 ft | 410 kts | 3° |
| 2026-05-06 18:49 | 52.96064 | 10.07935 | 19313 ft | 404 kts | 2° |
| 2026-05-06 18:49 | 52.98824 | 10.08290 | 18603 ft | 402 kts | 4° |
| 2026-05-06 18:49 | 53.01605 | 10.08698 | 17855 ft | 399 kts | 4° |
| 2026-05-06 18:49 | 53.04362 | 10.09098 | 17053 ft | 396 kts | 4° |
| 2026-05-06 18:50 | 53.07101 | 10.09482 | 16266 ft | 391 kts | 4° |
| 2026-05-06 18:50 | 53.09796 | 10.09849 | 15497 ft | 385 kts | 4° |
| 2026-05-06 18:50 | 53.12420 | 10.10198 | 14772 ft | 380 kts | 4° |
| 2026-05-06 18:50 | 53.15039 | 10.10547 | 14045 ft | 375 kts | 3° |
| 2026-05-06 18:51 | 53.17630 | 10.10888 | 13287 ft | 370 kts | 4° |
| 2026-05-06 18:51 | 53.19325 | 10.11110 | 12756 ft | 366 kts | 4° |
| 2026-05-06 18:51 | 53.21436 | 10.11388 | 12104 ft | 362 kts | 4° |
| 2026-05-06 18:51 | 53.23896 | 10.11713 | 11485 ft | 353 kts | 5° |
| 2026-05-06 18:52 | 53.26305 | 10.12033 | 11046 ft | 342 kts | 5° |
| 2026-05-06 18:52 | 53.28713 | 10.12354 | 10907 ft | 348 kts | 5° |
| 2026-05-06 18:52 | 53.31130 | 10.12678 | 10881 ft | 347 kts | 5° |
| 2026-05-06 18:52 | 53.33499 | 10.12995 | 10878 ft | 340 kts | 5° |
| 2026-05-06 18:53 | 53.35777 | 10.13300 | 10879 ft | 316 kts | 5° |
| 2026-05-06 18:53 | 53.37879 | 10.13700 | 10870 ft | 290 kts | 14° |
| 2026-05-06 18:53 | 53.39687 | 10.14977 | 10396 ft | 280 kts | 31° |
| 2026-05-06 18:53 | 53.41276 | 10.16832 | 9747 ft | 281 kts | 30° |
| 2026-05-06 18:54 | 53.43099 | 10.17911 | 9148 ft | 277 kts | 11° |
| 2026-05-06 18:54 | 53.45004 | 10.17723 | 8691 ft | 271 kts | 344° |
| 2026-05-06 18:54 | 53.46396 | 10.16641 | 8562 ft | 254 kts | 334° |
| 2026-05-06 18:54 | 53.47901 | 10.15300 | 8141 ft | 244 kts | 334° |
| 2026-05-06 18:55 | 53.49405 | 10.13981 | 7635 ft | 243 kts | 334° |
| 2026-05-06 18:55 | 53.50896 | 10.12652 | 7210 ft | 240 kts | 334° |
| 2026-05-06 18:55 | 53.52355 | 10.11342 | 6952 ft | 237 kts | 334° |
| 2026-05-06 18:55 | 53.53806 | 10.10041 | 6891 ft | 239 kts | 334° |
| 2026-05-06 18:56 | 53.55272 | 10.08719 | 6880 ft | 239 kts | 334° |
| 2026-05-06 18:56 | 53.56744 | 10.07397 | 6886 ft | 240 kts | 334° |
| 2026-05-06 18:56 | 53.58106 | 10.05790 | 6888 ft | 241 kts | 314° |
| 2026-05-06 18:56 | 53.58901 | 10.03297 | 6888 ft | 246 kts | 285° |
| 2026-05-06 18:57 | 53.58899 | 10.00451 | 6915 ft | 253 kts | 257° |
| 2026-05-06 18:57 | 53.58090 | 9.97867 | 6909 ft | 252 kts | 227° |
| 2026-05-06 18:57 | 53.56648 | 9.96194 | 6921 ft | 253 kts | 203° |
| 2026-05-06 18:57 | 53.55040 | 9.94934 | 6885 ft | 254 kts | 204° |
| 2026-05-06 18:58 | 53.53448 | 9.93688 | 6888 ft | 252 kts | 204° |
| 2026-05-06 18:58 | 53.52112 | 9.92644 | 6884 ft | 253 kts | 204° |
| 2026-05-06 18:58 | 53.50862 | 9.91670 | 6882 ft | 251 kts | 204° |
| 2026-05-06 18:58 | 53.49282 | 9.90442 | 6882 ft | 250 kts | 204° |
| 2026-05-06 18:59 | 53.47681 | 9.89183 | 6880 ft | 253 kts | 205° |
| 2026-05-06 18:59 | 53.46295 | 9.87383 | 6883 ft | 253 kts | 227° |
| 2026-05-06 18:59 | 53.45146 | 9.85147 | 6786 ft | 252 kts | 229° |
| 2026-05-06 18:59 | 53.44034 | 9.83016 | 6533 ft | 249 kts | 229° |
| 2026-05-06 19:00 | 53.42891 | 9.80830 | 6097 ft | 249 kts | 229° |
| 2026-05-06 19:00 | 53.41749 | 9.78640 | 5644 ft | 248 kts | 229° |
| 2026-05-06 19:00 | 53.40616 | 9.76442 | 5188 ft | 248 kts | 229° |
| 2026-05-06 19:00 | 53.39496 | 9.74251 | 5034 ft | 249 kts | 229° |
| 2026-05-06 19:01 | 53.38377 | 9.72068 | 5003 ft | 249 kts | 229° |
| 2026-05-06 19:01 | 53.37256 | 9.69874 | 5009 ft | 247 kts | 229° |
| 2026-05-06 19:01 | 53.36127 | 9.67679 | 5000 ft | 249 kts | 229° |
| 2026-05-06 19:01 | 53.35133 | 9.65735 | 5001 ft | 248 kts | 229° |
| 2026-05-06 19:02 | 53.34018 | 9.63543 | 4997 ft | 248 kts | 229° |
| 2026-05-06 19:02 | 53.32909 | 9.61365 | 4996 ft | 247 kts | 229° |
| 2026-05-06 19:02 | 53.31795 | 9.59166 | 5000 ft | 248 kts | 229° |
| 2026-05-06 19:02 | 53.31186 | 9.57972 | 4998 ft | 248 kts | 229° |
| 2026-05-06 19:03 | 53.30066 | 9.55775 | 4997 ft | 247 kts | 229° |
| 2026-05-06 19:03 | 53.28962 | 9.53567 | 4986 ft | 247 kts | 233° |
| 2026-05-06 19:03 | 53.28301 | 9.51001 | 4768 ft | 244 kts | 261° |
| 2026-05-06 19:03 | 53.28409 | 9.48211 | 4328 ft | 240 kts | 290° |
| 2026-05-06 19:04 | 53.29278 | 9.45891 | 3804 ft | 235 kts | 320° |
| 2026-05-06 19:04 | 53.30680 | 9.44628 | 3294 ft | 227 kts | 351° |
| 2026-05-06 19:04 | 53.32187 | 9.44804 | 3045 ft | 217 kts | 25° |
| 2026-05-06 19:04 | 53.33487 | 9.46106 | 3014 ft | 217 kts | 40° |
| 2026-05-06 19:05 | 53.34564 | 9.47211 | 3013 ft | 218 kts | 28° |
| 2026-05-06 19:05 | 53.35947 | 9.48272 | 3006 ft | 219 kts | 27° |
| 2026-05-06 19:05 | 53.37340 | 9.49329 | 3006 ft | 217 kts | 27° |
| 2026-05-06 19:05 | 53.38586 | 9.50685 | 3024 ft | 215 kts | 46° |
| 2026-05-06 19:06 | 53.39592 | 9.52498 | 3004 ft | 214 kts | 50° |
| 2026-05-06 19:06 | 53.40586 | 9.54366 | 3004 ft | 215 kts | 50° |
| 2026-05-06 19:06 | 53.41573 | 9.56246 | 3003 ft | 215 kts | 50° |
| 2026-05-06 19:06 | 53.42560 | 9.58124 | 3003 ft | 214 kts | 50° |
| 2026-05-06 19:07 | 53.43605 | 9.59909 | 3002 ft | 215 kts | 45° |
| 2026-05-06 19:07 | 53.44681 | 9.61655 | 3022 ft | 214 kts | 48° |
| 2026-05-06 19:07 | 53.45657 | 9.63544 | 3023 ft | 214 kts | 51° |
| 2026-05-06 19:07 | 53.46620 | 9.65400 | 3022 ft | 206 kts | 50° |
| 2026-05-06 19:08 | 53.47503 | 9.67165 | 3024 ft | 187 kts | 52° |
| 2026-05-06 19:08 | 53.48297 | 9.68791 | 3022 ft | 172 kts | 52° |
| 2026-05-06 19:08 | 53.48902 | 9.70021 | 3020 ft | 161 kts | 52° |
| 2026-05-06 19:08 | 53.49625 | 9.71500 | 3025 ft | 167 kts | 52° |
| 2026-05-06 19:09 | 53.50354 | 9.72986 | 3022 ft | 163 kts | 52° |
| 2026-05-06 19:09 | 53.51078 | 9.74467 | 3022 ft | 162 kts | 52° |
| 2026-05-06 19:09 | 53.51709 | 9.75753 | 3029 ft | 163 kts | 52° |
| 2026-05-06 19:09 | 53.52417 | 9.77196 | 3034 ft | 163 kts | 52° |
| 2026-05-06 19:10 | 53.53137 | 9.78664 | 2847 ft | 162 kts | 52° |
| 2026-05-06 19:10 | 53.53858 | 9.80135 | 2623 ft | 163 kts | 52° |
| 2026-05-06 19:10 | 53.54577 | 9.81599 | 2418 ft | 161 kts | 52° |
| 2026-05-06 19:10 | 53.55280 | 9.83034 | 2193 ft | 160 kts | 51° |
| 2026-05-06 19:11 | 53.55980 | 9.84456 | 1970 ft | 156 kts | 52° |
| 2026-05-06 19:11 | 53.56674 | 9.85875 | 1771 ft | 156 kts | 52° |
| 2026-05-06 19:11 | 53.57362 | 9.87272 | 1533 ft | 151 kts | 51° |
| 2026-05-06 19:11 | 53.58006 | 9.88585 | 1349 ft | 141 kts | 51° |
| 2026-05-06 19:12 | 53.58615 | 9.89825 | 1133 ft | 133 kts | 50° |
| 2026-05-06 19:12 | 53.59198 | 9.91065 | 986 ft | 135 kts | 51° |
| 2026-05-06 19:12 | 53.59786 | 9.92283 | 784 ft | 135 kts | 51° |
| 2026-05-06 19:12 | 53.60367 | 9.93479 | 583 ft | 131 kts | 51° |
| 2026-05-06 19:13 | 53.60671 | 9.94068 | 478 ft | 141 kts | 48° |
| 2026-05-06 19:13 | 53.61310 | 9.95341 | 284 ft | 139 kts | 51° |
| 2026-05-06 19:13 | 53.61918 | 9.96573 | 130 ft | 141 kts | 51° |
| 2026-05-06 19:13 | 53.62554 | 9.97928 | 735 ft | 158 kts | 52° |
| 2026-05-06 19:14 | 53.63297 | 9.99493 | 1405 ft | 184 kts | 50° |
| 2026-05-06 19:14 | 53.64193 | 10.01128 | 2337 ft | 193 kts | 48° |
| 2026-05-06 19:14 | 53.65145 | 10.02816 | 3258 ft | 202 kts | 48° |
| 2026-05-06 19:14 | 53.66126 | 10.04570 | 3778 ft | 208 kts | 48° |
| 2026-05-06 19:15 | 53.67120 | 10.06362 | 3970 ft | 209 kts | 48° |
| 2026-05-06 19:15 | 53.68097 | 10.08138 | 4022 ft | 209 kts | 49° |
| 2026-05-06 19:15 | 53.68636 | 10.09505 | 4032 ft | 208 kts | 67° |
| 2026-05-06 19:15 | 53.68848 | 10.11177 | 4032 ft | 211 kts | 88° |
| 2026-05-06 19:16 | 53.68770 | 10.13657 | 4017 ft | 211 kts | 98° |
| 2026-05-06 19:16 | 53.68124 | 10.15885 | 4024 ft | 218 kts | 129° |
| 2026-05-06 19:16 | 53.67321 | 10.16925 | 4027 ft | 223 kts | 150° |
| 2026-05-06 19:16 | 53.65910 | 10.17462 | 4031 ft | 231 kts | 179° |
| 2026-05-06 19:17 | 53.64338 | 10.16673 | 4031 ft | 244 kts | 210° |
| 2026-05-06 19:17 | 53.62953 | 10.15041 | 4028 ft | 246 kts | 214° |
| 2026-05-06 19:17 | 53.61559 | 10.13363 | 4027 ft | 246 kts | 214° |
| 2026-05-06 19:17 | 53.60165 | 10.11688 | 4028 ft | 245 kts | 214° |
| 2026-05-06 19:18 | 53.58774 | 10.10011 | 4027 ft | 246 kts | 214° |
| 2026-05-06 19:18 | 53.57388 | 10.08340 | 4028 ft | 245 kts | 214° |
| 2026-05-06 19:18 | 53.55997 | 10.06670 | 4029 ft | 245 kts | 214° |
| 2026-05-06 19:18 | 53.55468 | 10.06038 | 4030 ft | 245 kts | 214° |
| 2026-05-06 19:19 | 53.54084 | 10.04378 | 4028 ft | 244 kts | 213° |
| 2026-05-06 19:19 | 53.52697 | 10.02706 | 4028 ft | 245 kts | 213° |
| 2026-05-06 19:19 | 53.51313 | 10.01031 | 4026 ft | 245 kts | 214° |
| 2026-05-06 19:19 | 53.49967 | 9.99409 | 4026 ft | 245 kts | 214° |
| 2026-05-06 19:20 | 53.48586 | 9.97743 | 4026 ft | 245 kts | 213° |
| 2026-05-06 19:20 | 53.47222 | 9.96023 | 4018 ft | 245 kts | 221° |
| 2026-05-06 19:20 | 53.46169 | 9.93794 | 4028 ft | 247 kts | 233° |
| 2026-05-06 19:20 | 53.45175 | 9.91435 | 4028 ft | 246 kts | 234° |
| 2026-05-06 19:21 | 53.44181 | 9.89093 | 4030 ft | 247 kts | 234° |
| 2026-05-06 19:21 | 53.43180 | 9.86734 | 4004 ft | 247 kts | 234° |
| 2026-05-06 19:21 | 53.42195 | 9.84418 | 4002 ft | 247 kts | 234° |
| 2026-05-06 19:21 | 53.41198 | 9.82076 | 4005 ft | 246 kts | 234° |
| 2026-05-06 19:22 | 53.40525 | 9.80499 | 4001 ft | 247 kts | 234° |
| 2026-05-06 19:22 | 53.39699 | 9.78564 | 4000 ft | 246 kts | 234° |
| 2026-05-06 19:22 | 53.38712 | 9.76254 | 4001 ft | 247 kts | 235° |
| 2026-05-06 19:22 | 53.37709 | 9.73926 | 4000 ft | 247 kts | 234° |
| 2026-05-06 19:23 | 53.36701 | 9.71596 | 4000 ft | 246 kts | 234° |
| 2026-05-06 19:23 | 53.35698 | 9.69265 | 4002 ft | 246 kts | 234° |
| 2026-05-06 19:23 | 53.34693 | 9.66940 | 4006 ft | 245 kts | 234° |
| 2026-05-06 19:23 | 53.33701 | 9.64623 | 4000 ft | 244 kts | 234° |
| 2026-05-06 19:24 | 53.32708 | 9.62301 | 3999 ft | 246 kts | 234° |
| 2026-05-06 19:24 | 53.32049 | 9.60761 | 3999 ft | 245 kts | 234° |
| 2026-05-06 19:24 | 53.31291 | 9.58794 | 3991 ft | 245 kts | 246° |
| 2026-05-06 19:24 | 53.31064 | 9.55112 | 4003 ft | 242 kts | 286° |
| 2026-05-06 19:25 | 53.31494 | 9.53414 | 3942 ft | 238 kts | 306° |
| 2026-05-06 19:25 | 53.32679 | 9.51590 | 3669 ft | 229 kts | 336° |
| 2026-05-06 19:25 | 53.34197 | 9.51049 | 3263 ft | 221 kts | 8° |
| 2026-05-06 19:25 | 53.35625 | 9.51780 | 3033 ft | 218 kts | 24° |
| 2026-05-06 19:26 | 53.36480 | 9.52342 | 2990 ft | 220 kts | 24° |
| 2026-05-06 19:26 | 53.37906 | 9.53273 | 2975 ft | 217 kts | 25° |
| 2026-05-06 19:26 | 53.39299 | 9.54253 | 2977 ft | 217 kts | 24° |
| 2026-05-06 19:26 | 53.40714 | 9.55173 | 2977 ft | 219 kts | 24° |
| 2026-05-06 19:27 | 53.41967 | 9.56490 | 3001 ft | 215 kts | 47° |
| 2026-05-06 19:27 | 53.42956 | 9.58368 | 2975 ft | 214 kts | 51° |
| 2026-05-06 19:27 | 53.43921 | 9.60295 | 2993 ft | 215 kts | 51° |
| 2026-05-06 19:27 | 53.44875 | 9.62207 | 2992 ft | 210 kts | 51° |
| 2026-05-06 19:28 | 53.45773 | 9.63994 | 2993 ft | 191 kts | 51° |
| 2026-05-06 19:28 | 53.46587 | 9.65610 | 2991 ft | 175 kts | 51° |
| 2026-05-06 19:28 | 53.47344 | 9.67112 | 2995 ft | 163 kts | 51° |
| 2026-05-06 19:28 | 53.47861 | 9.68138 | 3008 ft | 167 kts | 51° |
| 2026-05-06 19:29 | 53.48593 | 9.69592 | 3002 ft | 160 kts | 51° |
| 2026-05-06 19:29 | 53.49330 | 9.71067 | 2998 ft | 165 kts | 51° |
| 2026-05-06 19:29 | 53.50062 | 9.72532 | 3002 ft | 164 kts | 51° |
| 2026-05-06 19:29 | 53.50819 | 9.73961 | 2995 ft | 162 kts | 49° |
| 2026-05-06 19:30 | 53.51537 | 9.75396 | 3004 ft | 164 kts | 52° |
| 2026-05-06 19:30 | 53.52254 | 9.76867 | 2997 ft | 162 kts | 51° |
| 2026-05-06 19:30 | 53.52900 | 9.78176 | 2904 ft | 163 kts | 52° |
| 2026-05-06 19:30 | 53.53615 | 9.79640 | 2690 ft | 162 kts | 51° |
| 2026-05-06 19:31 | 53.54342 | 9.81116 | 2488 ft | 163 kts | 52° |
| 2026-05-06 19:31 | 53.55054 | 9.82578 | 2254 ft | 161 kts | 51° |
| 2026-05-06 19:31 | 53.56445 | 9.85409 | 1841 ft | 158 kts | 52° |
| 2026-05-06 19:32 | 53.57147 | 9.86835 | 1603 ft | 153 kts | 52° |
| 2026-05-06 19:32 | 53.57535 | 9.87626 | 1502 ft | 155 kts | 52° |
| 2026-05-06 19:32 | 53.58163 | 9.88908 | 1297 ft | 143 kts | 51° |
| 2026-05-06 19:32 | 53.58765 | 9.90156 | 1074 ft | 136 kts | 53° |
| 2026-05-06 19:33 | 53.59350 | 9.91406 | 925 ft | 134 kts | 50° |
| 2026-05-06 19:33 | 53.59959 | 9.92609 | 698 ft | 135 kts | 49° |
| 2026-05-06 19:33 | 53.60546 | 9.93803 | 518 ft | 132 kts | 50° |
| 2026-05-06 19:33 | 53.61150 | 9.95026 | 348 ft | 137 kts | 49° |
| 2026-05-06 19:34 | 53.61744 | 9.96208 | 177 ft | 131 kts | 48° |
| 2026-05-06 19:34 | 53.62347 | 9.97435 | 52 ft | 133 kts | 49° |
| 2026-05-06 19:34 | 53.62824 | 9.98394 | 48 ft | 92 kts | 50° |
| 2026-05-06 19:34 | 53.63103 | 9.98952 | 49 ft | 34 kts | 50° |
| 2026-05-06 19:35 | 53.63212 | 9.99173 | 52 ft | 25 kts | 50° |
| 2026-05-06 19:35 | 53.63291 | 9.99415 | 53 ft | 24 kts | 80° |
| 2026-05-06 19:35 | 53.63278 | 9.99656 | 56 ft | 10 kts | 99° |
| 2026-05-06 19:35 | 53.63277 | 9.99661 | 56 ft | 0 kts | 99° |
| 2026-05-06 19:36 | 53.63277 | 9.99662 | 56 ft | 0 kts | 99° |
| 2026-05-06 19:37 | 53.63275 | 9.99680 | 49 ft | 6 kts | 99° |
| 2026-05-06 19:37 | 53.63284 | 9.99776 | 53 ft | 10 kts | 66° |
| 2026-05-06 19:37 | 53.63341 | 9.99887 | 49 ft | 15 kts | 47° |
| 2026-05-06 19:37 | 53.63411 | 10.00023 | 49 ft | 16 kts | 52° |
| 2026-05-06 19:38 | 53.63406 | 10.00167 | 49 ft | 12 kts | 127° |
| 2026-05-06 19:38 | 53.63329 | 10.00201 | 50 ft | 12 kts | 175° |
| 2026-05-06 19:38 | 53.63236 | 10.00211 | 52 ft | 14 kts | 176° |
| 2026-05-06 19:38 | 53.63203 | 10.00215 | 56 ft | 3 kts | 175° |
| 2026-05-06 19:39 | 53.63191 | 10.00237 | 51 ft | 2 kts | 124° |
| 2026-05-06 19:39 | 53.63195 | 10.00255 | 50 ft | 1 kts | 83° |
| 2026-05-06 19:39 | 53.63194 | 10.00281 | 50 ft | 4 kts | 97° |
| 2026-05-06 19:39 | 53.63194 | 10.00334 | 54 ft | 0 kts | 87° |
| 2026-05-06 19:40 | 53.63195 | 10.00347 | 52 ft | 2 kts | 84° |
| 2026-05-06 19:40 | 53.63196 | 10.00367 | 54 ft | 0 kts | 85° |